createdAt,value
2018-08-19T00:02:08.555Z,98400.44
2018-08-19T00:04:38.358Z,98399.35
2018-08-19T00:07:07.284Z,98403.00
2018-08-19T00:09:36.133Z,98404.35
2018-08-19T00:12:04.874Z,98402.42
2018-08-19T00:14:35.229Z,98399.29
2018-08-19T00:17:05.129Z,98407.13
2018-08-19T00:19:35.349Z,98408.62
2018-08-19T00:22:03.928Z,98413.72
2018-08-19T00:24:32.507Z,98414.29
2018-08-19T00:27:02.026Z,98410.25
2018-08-19T00:29:37.402Z,98401.09
2018-08-19T00:32:06.913Z,98403.08
2018-08-19T00:34:38.783Z,98403.87
2018-08-19T00:37:07.746Z,98405.77
2018-08-19T00:39:36.288Z,98400.09
2018-08-19T00:42:05.258Z,98410.08
2018-08-19T00:44:34.349Z,98402.55
2018-08-19T00:47:03.839Z,98404.66
2018-08-19T00:49:32.697Z,98400.34
2018-08-19T00:52:02.364Z,98396.27
2018-08-19T00:54:31.980Z,98407.15
2018-08-19T00:57:01.173Z,98405.55
2018-08-19T00:59:31.077Z,98402.88
2018-08-19T01:01:59.866Z,98401.47
2018-08-19T01:04:28.721Z,98406.87
2018-08-19T01:06:58.452Z,98404.74
2018-08-19T01:09:30.297Z,98407.73
2018-08-19T01:11:58.918Z,98410.48
2018-08-19T01:14:27.508Z,98405.88
2018-08-19T01:16:56.045Z,98413.19
2018-08-19T01:19:24.682Z,98402.38
2018-08-19T01:21:55.294Z,98415.91
2018-08-19T01:24:23.952Z,98412.67
2018-08-19T01:26:52.554Z,98412.95
2018-08-19T01:29:37.308Z,98408.08
2018-08-19T01:32:12.078Z,98413.49
2018-08-19T01:34:44.266Z,98415.68
2018-08-19T01:37:15.377Z,98413.78
2018-08-19T01:39:43.940Z,98415.94
2018-08-19T01:42:12.541Z,98422.44
2018-08-19T01:44:42.716Z,98419.73
2018-08-19T01:47:11.256Z,98422.69
2018-08-19T01:49:39.829Z,98412.95
2018-08-19T01:52:08.818Z,98419.95
2018-08-19T01:54:37.388Z,98419.17
2018-08-19T01:57:05.968Z,98422.95
2018-08-19T01:59:35.523Z,98419.95
2018-08-19T02:02:08.691Z,98418.36
2018-08-19T02:04:46.218Z,98420.52
2018-08-19T02:07:16.660Z,98419.42
2018-08-19T02:09:58.684Z,98418.34
2018-08-19T02:15:20.610Z,98411.33
2018-08-19T02:17:53.849Z,98420.23
2018-08-19T02:20:25.691Z,98414.30
2018-08-19T02:23:03.202Z,98419.70
2018-08-19T02:25:33.910Z,98414.83
2018-08-19T02:28:03.214Z,98414.83
2018-08-19T02:30:31.850Z,98414.83
2018-08-19T02:33:01.149Z,98414.58
2018-08-19T02:35:30.871Z,98414.58
2018-08-19T02:37:59.463Z,98416.18
2018-08-19T02:40:33.033Z,98412.41
2018-08-19T02:43:01.814Z,98416.72
2018-08-19T02:45:30.441Z,98416.98
2018-08-19T02:47:59.054Z,98417.80
2018-08-19T02:50:27.656Z,98415.11
2018-08-19T02:52:56.337Z,98418.08
2018-08-19T02:55:25.991Z,98421.04
2018-08-19T02:57:59.694Z,98424.02
2018-08-19T03:00:28.486Z,98422.13
2018-08-19T03:02:57.109Z,98421.02
2018-08-19T03:05:26.641Z,98427.80
2018-08-19T03:07:56.287Z,98411.30
2018-08-19T03:10:24.886Z,98422.63
2018-08-19T03:12:54.977Z,98415.86
2018-08-19T03:15:23.573Z,98414.52
2018-08-19T03:17:53.078Z,98409.91
2018-08-19T03:20:21.980Z,98419.93
2018-08-19T03:22:50.611Z,98415.35
2018-08-19T03:25:19.174Z,98409.66
2018-08-19T03:27:47.810Z,98409.12
2018-08-19T03:30:18.253Z,98411.00
2018-08-19T03:32:52.147Z,98404.78
2018-08-19T03:35:21.764Z,98409.65
2018-08-19T03:37:53.260Z,98410.20
2018-08-19T03:40:24.909Z,98414.78
2018-08-19T03:42:53.706Z,98418.55
2018-08-19T03:45:23.169Z,98422.89
2018-08-19T03:47:53.504Z,98419.64
2018-08-19T03:50:23.534Z,98425.83
2018-08-19T03:52:53.118Z,98427.17
2018-08-19T03:55:27.766Z,98424.22
2018-08-19T03:58:01.289Z,98426.37
2018-08-19T04:00:40.331Z,98428.79
2018-08-19T04:03:17.034Z,98429.03
2018-08-19T04:08:43.614Z,98434.36
2018-08-19T04:11:12.944Z,98438.09
2018-08-19T04:13:42.054Z,98440.01
2018-08-19T04:16:12.121Z,98440.30
2018-08-19T04:18:43.503Z,98447.31
2018-08-19T04:21:14.518Z,98456.19
2018-08-19T04:23:44.808Z,98454.59
2018-08-19T04:26:13.648Z,98459.52
2018-08-19T04:28:43.315Z,98463.33
2018-08-19T04:31:18.002Z,98466.05
2018-08-19T04:33:47.664Z,98468.25
2018-08-19T04:36:18.357Z,98465.28
2018-08-19T04:38:46.900Z,98463.70
2018-08-19T04:41:16.081Z,98463.97
2018-08-19T04:43:45.150Z,98463.69
2018-08-19T04:46:13.746Z,98469.38
2018-08-19T04:48:46.155Z,98476.42
2018-08-19T04:51:15.906Z,98474.27
2018-08-19T04:56:37.414Z,98478.09
2018-08-19T04:59:09.995Z,98476.44
2018-08-19T05:01:38.814Z,98482.38
2018-08-19T05:04:08.072Z,98475.12
2018-08-19T05:06:36.678Z,98476.23
2018-08-19T05:09:08.186Z,98482.68
2018-08-19T05:11:36.835Z,98485.96
2018-08-19T05:14:05.439Z,98491.94
2018-08-19T05:16:33.982Z,98494.36
2018-08-19T05:19:05.162Z,98489.23
2018-08-19T05:21:33.857Z,98487.88
2018-08-19T05:24:02.724Z,98487.07
2018-08-19T05:26:31.896Z,98487.06
2018-08-19T05:29:09.016Z,98486.23
2018-08-19T05:31:50.312Z,98495.17
2018-08-19T05:34:25.597Z,98489.22
2018-08-19T05:36:54.236Z,98498.15
2018-08-19T05:39:23.402Z,98501.13
2018-08-19T05:42:15.341Z,98501.66
2018-08-19T05:44:44.793Z,98505.97
2018-08-19T05:47:17.214Z,98502.77
2018-08-19T05:49:46.822Z,98506.80
2018-08-19T05:52:18.851Z,98504.59
2018-08-19T05:54:52.828Z,98510.55
2018-08-19T05:57:21.442Z,98506.67
2018-08-19T05:59:51.235Z,98511.75
2018-08-19T06:02:54.797Z,98505.42
2018-08-19T06:05:23.389Z,98515.10
2018-08-19T06:08:01.891Z,98508.32
2018-08-19T06:10:30.723Z,98506.43
2018-08-19T06:13:00.306Z,98505.61
2018-08-19T06:15:29.030Z,98508.53
2018-08-19T06:17:58.444Z,98509.45
2018-08-19T06:20:29.015Z,98509.82
2018-08-19T06:22:57.663Z,98514.14
2018-08-19T06:25:26.326Z,98500.34
2018-08-19T06:27:55.636Z,98505.39
2018-08-19T06:30:24.298Z,98501.50
2018-08-19T06:32:53.598Z,98507.87
2018-08-19T06:35:22.193Z,98503.32
2018-08-19T06:37:50.911Z,98505.16
2018-08-19T06:40:21.433Z,98499.52
2018-08-19T06:42:50.621Z,98504.50
2018-08-19T06:45:19.212Z,98504.04
2018-08-19T06:47:47.918Z,98498.45
2018-08-19T06:50:26.108Z,98502.53
2018-08-19T06:52:55.429Z,98500.58
2018-08-19T06:55:24.123Z,98502.02
2018-08-19T06:57:53.133Z,98514.23
2018-08-19T07:00:28.898Z,98507.77
2018-08-19T07:03:00.191Z,98512.25
2018-08-19T07:05:29.017Z,98510.02
2018-08-19T07:07:57.650Z,98515.06
2018-08-19T07:10:32.194Z,98518.37
2018-08-19T07:13:05.918Z,98508.84
2018-08-19T07:15:35.239Z,98516.95
2018-08-19T07:18:04.142Z,98517.70
2018-08-19T07:20:33.537Z,98521.34
2018-08-19T07:23:02.102Z,98515.30
2018-08-19T07:25:30.703Z,98518.16
2018-08-19T07:27:59.370Z,98522.83
2018-08-19T07:30:28.135Z,98516.94
2018-08-19T07:32:56.962Z,98518.77
2018-08-19T07:35:25.527Z,98523.20
2018-08-19T07:37:54.338Z,98517.56
2018-08-19T07:40:22.884Z,98525.51
2018-08-19T07:42:51.439Z,98522.20
2018-08-19T07:45:20.000Z,98525.68
2018-08-19T07:47:48.844Z,98519.16
2018-08-19T07:50:17.875Z,98519.05
2018-08-19T07:52:46.801Z,98524.33
2018-08-19T07:55:15.538Z,98515.23
2018-08-19T07:57:44.334Z,98517.91
2018-08-19T08:00:13.431Z,98515.77
2018-08-19T08:02:42.078Z,98519.06
2018-08-19T08:05:11.398Z,98518.00
2018-08-19T08:07:44.340Z,98522.18
2018-08-19T08:10:12.959Z,98516.63
2018-08-19T08:12:42.023Z,98522.80
2018-08-19T08:15:10.794Z,98516.02
2018-08-19T08:17:41.075Z,98521.19
2018-08-19T08:20:09.759Z,98517.77
2018-08-19T08:22:39.115Z,98523.16
2018-08-19T08:25:10.938Z,98514.33
2018-08-19T08:27:39.493Z,98527.54
2018-08-19T08:30:11.762Z,98520.81
2018-08-19T08:32:41.293Z,98520.21
2018-08-19T08:35:10.328Z,98516.42
2018-08-19T08:37:41.746Z,98516.20
2018-08-19T08:40:11.770Z,98518.62
2018-08-19T08:42:43.385Z,98521.13
2018-08-19T08:45:13.199Z,98521.38
2018-08-19T08:47:42.242Z,98516.15
2018-08-19T08:50:11.950Z,98512.97
2018-08-19T08:52:43.321Z,98507.66
2018-08-19T08:55:12.816Z,98497.53
2018-08-19T08:57:41.372Z,98495.23
2018-08-19T09:00:13.614Z,98501.08
2018-08-19T09:02:43.143Z,98499.15
2018-08-19T09:05:12.510Z,98480.56
2018-08-19T09:07:41.723Z,98484.04
2018-08-19T09:10:12.827Z,98483.01
2018-08-19T09:12:50.965Z,98485.89
2018-08-19T09:15:20.228Z,98479.80
2018-08-19T09:17:49.888Z,98480.38
2018-08-19T09:20:27.321Z,98485.06
2018-08-19T09:22:55.915Z,98488.75
2018-08-19T09:25:24.467Z,98478.56
2018-08-19T09:27:53.789Z,98479.84
2018-08-19T09:30:30.746Z,98481.25
2018-08-19T09:33:01.673Z,98481.62
2018-08-19T09:35:33.504Z,98477.58
2018-08-19T09:38:20.875Z,98472.25
2018-08-19T09:40:50.172Z,98466.78
2018-08-19T09:43:18.903Z,98460.22
2018-08-19T09:45:47.842Z,98456.59
2018-08-19T09:48:16.798Z,98460.30
2018-08-19T09:50:45.634Z,98463.48
2018-08-19T09:53:14.373Z,98459.92
2018-08-19T09:55:47.402Z,98452.51
2018-08-19T09:58:18.144Z,98451.42
2018-08-19T10:00:51.990Z,98444.37
2018-08-19T10:03:20.514Z,98454.04
2018-08-19T10:05:49.113Z,98448.97
2018-08-19T10:08:18.533Z,98444.38
2018-08-19T10:10:47.538Z,98435.77
2018-08-19T10:13:16.326Z,98428.80
2018-08-19T10:15:44.896Z,98424.50
2018-08-19T10:18:13.424Z,98431.12
2018-08-19T10:20:41.966Z,98434.96
2018-08-19T10:23:10.467Z,98424.80
2018-08-19T10:25:39.053Z,98421.33
2018-08-19T10:28:07.863Z,98422.55
2018-08-19T10:30:39.759Z,98423.91
2018-08-19T10:33:10.774Z,98414.78
2018-08-19T10:35:39.405Z,98412.48
2018-08-19T10:38:07.935Z,98410.87
2018-08-19T10:40:36.609Z,98405.09
2018-08-19T10:43:07.468Z,98408.15
2018-08-19T10:45:38.254Z,98400.13
2018-08-19T10:48:10.021Z,98406.83
2018-08-19T10:50:38.569Z,98396.19
2018-08-19T10:53:15.468Z,98397.77
2018-08-19T10:55:44.934Z,98389.17
2018-08-19T10:58:13.434Z,98394.46
2018-08-19T11:00:42.053Z,98394.34
2018-08-19T11:03:16.732Z,98393.17
2018-08-19T11:05:46.150Z,98391.63
2018-08-19T11:08:14.667Z,98393.06
2018-08-19T11:10:43.207Z,98393.80
2018-08-19T11:13:11.706Z,98387.90
2018-08-19T11:15:45.315Z,98388.91
2018-08-19T11:18:42.982Z,98381.61
2018-08-19T11:21:25.727Z,98377.57
2018-08-19T11:23:54.674Z,98380.98
2018-08-19T11:26:23.279Z,98373.16
2018-08-19T11:28:54.123Z,98365.98
2018-08-19T11:31:28.027Z,98369.36
2018-08-19T11:33:58.650Z,98372.02
2018-08-19T11:36:44.732Z,98363.55
2018-08-19T11:39:14.741Z,98360.80
2018-08-19T11:41:43.269Z,98364.00
2018-08-19T11:44:14.049Z,98357.16
2018-08-19T11:46:42.601Z,98357.52
2018-08-19T11:49:14.386Z,98349.03
2018-08-19T11:51:47.002Z,98351.18
2018-08-19T11:54:16.701Z,98350.31
2018-08-19T11:56:59.195Z,98349.86
2018-08-19T11:59:33.120Z,98344.97
2018-08-19T12:02:01.866Z,98352.66
2018-08-19T12:04:30.378Z,98346.05
2018-08-19T12:06:58.882Z,98338.56
2018-08-19T12:09:27.436Z,98334.82
2018-08-19T12:11:55.957Z,98330.94
2018-08-19T12:14:24.449Z,98321.56
2018-08-19T12:16:55.306Z,98320.16
2018-08-19T12:19:25.763Z,98317.86
2018-08-19T12:22:00.299Z,98309.45
2018-08-19T12:24:31.809Z,98311.61
2018-08-19T12:27:02.353Z,98306.64
2018-08-19T12:29:35.041Z,98307.67
2018-08-19T12:32:19.562Z,98296.55
2018-08-19T12:34:51.132Z,98299.16
2018-08-19T12:37:20.779Z,98296.28
2018-08-19T12:39:49.623Z,98286.56
2018-08-19T12:42:18.219Z,98291.55
2018-08-19T12:44:52.318Z,98288.91
2018-08-19T12:47:23.294Z,98288.05
2018-08-19T12:50:00.659Z,98291.01
2018-08-19T12:52:32.239Z,98281.39
2018-08-19T12:55:19.164Z,98277.95
2018-08-19T12:57:52.286Z,98268.89
2018-08-19T13:00:28.080Z,98268.30
2018-08-19T13:02:56.687Z,98263.02
2018-08-19T13:05:25.230Z,98262.68
2018-08-19T13:07:53.834Z,98260.88
2018-08-19T13:10:22.851Z,98249.80
2018-08-19T13:12:56.717Z,98247.64
2018-08-19T13:15:27.162Z,98252.84
2018-08-19T13:17:55.866Z,98246.63
2018-08-19T13:20:24.478Z,98238.80
2018-08-19T13:23:00.306Z,98241.24
2018-08-19T13:25:29.033Z,98234.87
2018-08-19T13:27:57.757Z,98237.91
2018-08-19T13:30:26.417Z,98237.11
2018-08-19T13:32:54.910Z,98235.44
2018-08-19T13:35:23.475Z,98234.92
2018-08-19T13:37:54.306Z,98224.91
2018-08-19T13:40:22.844Z,98221.52
2018-08-19T13:42:51.391Z,98224.22
2018-08-19T13:45:21.273Z,98213.62
2018-08-19T13:47:51.388Z,98206.16
2018-08-19T13:50:19.945Z,98206.83
2018-08-19T13:52:48.429Z,98202.52
2018-08-19T13:55:18.673Z,98204.70
2018-08-19T13:57:47.161Z,98193.75
2018-08-19T14:00:20.349Z,98193.70
2018-08-19T14:02:49.426Z,98187.36
2018-08-19T14:05:17.929Z,98198.33
2018-08-19T14:07:46.418Z,98194.75
2018-08-19T14:10:15.874Z,98188.13
2018-08-19T14:12:44.504Z,98186.36
2018-08-19T14:15:13.075Z,98185.92
2018-08-19T14:17:41.695Z,98179.70
2018-08-19T14:20:15.410Z,98189.75
2018-08-19T14:22:43.924Z,98185.93
2018-08-19T14:25:12.895Z,98185.91
2018-08-19T14:27:41.713Z,98181.08
2018-08-19T14:30:11.807Z,98185.57
2018-08-19T14:32:41.297Z,98181.32
2018-08-19T14:35:09.906Z,98170.43
2018-08-19T14:37:38.431Z,98167.75
2018-08-19T14:40:10.561Z,98169.56
2018-08-19T14:42:39.101Z,98166.02
2018-08-19T14:45:07.769Z,98158.11
2018-08-19T14:47:36.319Z,98161.30
2018-08-19T14:50:08.949Z,98160.22
2018-08-19T14:52:37.437Z,98157.41
2018-08-19T14:55:06.462Z,98156.95
2018-08-19T14:57:34.982Z,98149.83
2018-08-19T15:00:03.807Z,98149.87
2018-08-19T15:02:35.510Z,98147.05
2018-08-19T15:05:04.256Z,98145.45
2018-08-19T15:07:32.742Z,98144.38
2018-08-19T15:10:01.336Z,98137.16
2018-08-19T15:12:29.802Z,98136.74
2018-08-19T15:15:00.937Z,98135.33
2018-08-19T15:17:29.440Z,98136.91
2018-08-19T15:19:57.986Z,98131.84
2018-08-19T15:22:26.432Z,98131.42
2018-08-19T15:24:54.917Z,98124.89
2018-08-19T15:27:23.374Z,98119.84
2018-08-19T15:29:53.057Z,98122.05
2018-08-19T15:32:22.948Z,98108.02
2018-08-19T15:34:51.266Z,98109.52
2018-08-19T15:37:19.758Z,98110.92
2018-08-19T15:39:48.292Z,98106.98
2018-08-19T15:42:17.026Z,98101.25
2018-08-19T15:44:45.651Z,98104.14
2018-08-19T15:47:14.287Z,98095.91
2018-08-19T15:49:42.773Z,98094.94
2018-08-19T15:52:11.278Z,98088.16
2018-08-19T15:54:42.669Z,98088.62
2018-08-19T15:57:11.176Z,98095.87
2018-08-19T15:59:39.646Z,98094.30
2018-08-19T16:02:08.182Z,98085.19
2018-08-19T16:04:36.655Z,98087.79
2018-08-19T16:07:05.264Z,98082.41
2018-08-19T16:09:33.754Z,98080.16
2018-08-19T16:12:02.291Z,98078.88
2018-08-19T16:14:32.834Z,98081.70
2018-08-19T16:17:02.565Z,98079.71
2018-08-19T16:19:31.256Z,98079.59
2018-08-19T16:22:00.349Z,98074.48
2018-08-19T16:24:29.115Z,98075.14
2018-08-19T16:26:57.716Z,98075.05
2018-08-19T16:29:26.721Z,98068.13
2018-08-19T16:31:55.267Z,98073.41
2018-08-19T16:34:28.695Z,98070.17
2018-08-19T16:36:57.304Z,98065.36
2018-08-19T16:39:25.890Z,98059.30
2018-08-19T16:41:54.387Z,98061.56
2018-08-19T16:44:23.212Z,98064.64
2018-08-19T16:46:51.695Z,98061.27
2018-08-19T16:49:20.130Z,98060.02
2018-08-19T16:51:48.655Z,98056.25
2018-08-19T16:54:17.116Z,98051.72
2018-08-19T16:56:45.639Z,98051.14
2018-08-19T16:59:14.093Z,98057.23
2018-08-19T17:01:42.566Z,98054.72
2018-08-19T17:04:11.050Z,98054.09
2018-08-19T17:06:39.564Z,98061.11
2018-08-19T17:09:09.277Z,98054.05
2018-08-19T17:11:37.784Z,98041.95
2018-08-19T17:14:07.137Z,98051.27
2018-08-19T17:16:35.680Z,98051.89
2018-08-19T17:19:04.179Z,98049.92
2018-08-19T17:21:32.676Z,98051.72
2018-08-19T17:24:01.143Z,98054.66
2018-08-19T17:26:29.649Z,98052.07
2018-08-19T17:29:04.346Z,98053.65
2018-08-19T17:31:33.102Z,98059.98
2018-08-19T17:34:01.622Z,98060.64
2018-08-19T17:36:34.819Z,98060.61
2018-08-19T17:39:03.396Z,98062.47
2018-08-19T17:41:31.867Z,98059.97
2018-08-19T17:44:02.475Z,98057.75
2018-08-19T17:46:30.941Z,98055.81
2018-08-19T17:48:59.560Z,98060.39
2018-08-19T17:51:33.658Z,98057.09
2018-08-19T17:54:02.463Z,98058.65
2018-08-19T17:56:30.938Z,98060.25
2018-08-19T17:58:59.483Z,98060.21
2018-08-19T18:01:28.658Z,98065.67
2018-08-19T18:03:57.737Z,98062.89
2018-08-19T18:06:27.431Z,98066.27
2018-08-19T18:08:56.383Z,98067.88
2018-08-19T18:11:24.903Z,98067.78
2018-08-19T18:13:53.479Z,98070.34
2018-08-19T18:16:22.056Z,98067.77
2018-08-19T18:18:50.667Z,98068.75
2018-08-19T18:21:19.197Z,98068.35
2018-08-19T18:23:49.106Z,98075.72
2018-08-19T18:26:18.020Z,98076.56
2018-08-19T18:28:48.414Z,98078.97
2018-08-19T18:31:21.456Z,98076.48
2018-08-19T18:34:00.044Z,98069.81
2018-08-19T18:36:31.377Z,98079.29
2018-08-19T18:39:00.378Z,98088.54
2018-08-19T18:41:33.307Z,98091.20
2018-08-19T18:44:03.026Z,98087.61
2018-08-19T18:46:32.249Z,98088.30
2018-08-19T18:49:12.375Z,98088.09
2018-08-19T18:51:42.308Z,98093.52
2018-08-19T18:54:19.014Z,98097.34
2018-08-19T18:56:47.534Z,98104.94
2018-08-19T18:59:17.702Z,98099.66
2018-08-19T19:01:46.227Z,98108.36
2018-08-19T19:04:15.206Z,98104.11
2018-08-19T19:06:43.731Z,98111.33
2018-08-19T19:09:12.530Z,98108.71
2018-08-19T19:11:41.082Z,98111.36
2018-08-19T19:14:16.816Z,98112.98
2018-08-19T19:16:47.794Z,98115.53
2018-08-19T19:19:16.481Z,98115.58
2018-08-19T19:21:51.010Z,98118.39
2018-08-19T19:24:24.886Z,98117.10
2018-08-19T19:26:53.973Z,98116.66
2018-08-19T19:29:26.556Z,98113.47
2018-08-19T19:31:56.102Z,98114.78
2018-08-19T19:34:30.951Z,98115.36
2018-08-19T19:36:59.511Z,98114.48
2018-08-19T19:39:28.006Z,98116.28
2018-08-19T19:42:02.614Z,98114.18
2018-08-19T19:44:34.710Z,98121.48
2018-08-19T19:47:03.375Z,98125.32
2018-08-19T19:49:32.046Z,98122.04
2018-08-19T19:52:02.549Z,98122.26
2018-08-19T19:54:32.230Z,98124.82
2018-08-19T19:57:01.481Z,98122.24
2018-08-19T19:59:31.533Z,98122.25
2018-08-19T20:02:00.054Z,98117.81
2018-08-19T20:04:28.700Z,98124.36
2018-08-19T20:06:57.244Z,98121.50
2018-08-19T20:09:25.793Z,98128.88
2018-08-19T20:11:54.298Z,98130.05
2018-08-19T20:14:22.817Z,98130.45
2018-08-19T20:16:51.295Z,98124.99
2018-08-19T20:19:19.820Z,98136.17
2018-08-19T20:21:48.363Z,98136.98
2018-08-19T20:24:17.191Z,98140.03
2018-08-19T20:26:45.704Z,98140.86
2018-08-19T20:29:14.168Z,98136.02
2018-08-19T20:31:42.767Z,98143.70
2018-08-19T20:34:11.316Z,98139.55
2018-08-19T20:36:39.842Z,98138.77
2018-08-19T20:39:08.447Z,98141.37
2018-08-19T20:41:37.009Z,98143.46
2018-08-19T20:44:07.924Z,98143.03
2018-08-19T20:46:37.903Z,98148.25
2018-08-19T20:49:06.458Z,98147.39
2018-08-19T20:51:35.132Z,98151.06
2018-08-19T20:54:03.686Z,98160.08
2018-08-19T20:56:32.244Z,98159.67
2018-08-19T20:59:01.042Z,98161.27
2018-08-19T21:01:29.589Z,98167.04
2018-08-19T21:03:58.207Z,98164.44
2018-08-19T21:06:26.770Z,98171.42
2018-08-19T21:08:55.360Z,98175.46
2018-08-19T21:11:23.945Z,98165.85
2018-08-19T21:13:52.466Z,98172.42
2018-08-19T21:16:21.779Z,98178.06
2018-08-19T21:18:50.335Z,98172.16
2018-08-19T21:21:18.943Z,98175.38
2018-08-19T21:23:47.454Z,98173.16
2018-08-19T21:26:16.074Z,98185.19
2018-08-19T21:28:48.836Z,98189.16
2018-08-19T21:31:17.717Z,98179.05
2018-08-19T21:33:46.290Z,98186.78
2018-08-19T21:36:14.883Z,98183.28
2018-08-19T21:38:43.463Z,98183.66
2018-08-19T21:41:12.093Z,98183.28
2018-08-19T21:43:40.671Z,98184.05
2018-08-19T21:46:09.259Z,98189.30
2018-08-19T21:48:39.282Z,98185.11
2018-08-19T21:51:07.899Z,98190.44
2018-08-19T21:53:37.052Z,98184.05
2018-08-19T21:56:05.654Z,98184.59
2018-08-19T21:58:34.349Z,98192.57
2018-08-19T22:01:04.253Z,98188.59
2018-08-19T22:03:38.221Z,98186.31
2018-08-19T22:06:08.066Z,98189.21
2018-08-19T22:08:36.551Z,98187.94
2018-08-19T22:11:05.307Z,98181.28
2018-08-19T22:13:33.890Z,98187.48
2018-08-19T22:16:02.518Z,98187.23
2018-08-19T22:18:31.859Z,98184.03
2018-08-19T22:21:26.588Z,98188.66
2018-08-19T22:23:56.446Z,98185.23
2018-08-19T22:26:25.032Z,98182.52
2018-08-19T22:29:09.163Z,98183.33
2018-08-19T22:31:37.758Z,98181.84
2018-08-19T22:34:06.293Z,98183.06
2018-08-19T22:36:34.834Z,98185.31
2018-08-19T22:39:03.595Z,98180.69
2018-08-19T22:41:33.445Z,98186.58
2018-08-19T22:44:01.980Z,98186.66
2018-08-19T22:46:30.599Z,98181.77
2018-08-19T22:48:59.458Z,98178.23
2018-08-19T22:51:31.094Z,98177.61
2018-08-19T22:53:59.670Z,98177.47
2018-08-19T22:56:28.249Z,98179.25
2018-08-19T22:58:56.778Z,98176.05
2018-08-19T23:01:29.535Z,98179.37
2018-08-19T23:04:02.415Z,98181.95
2018-08-19T23:06:31.951Z,98175.75
2018-08-19T23:09:00.721Z,98181.38
2018-08-19T23:11:35.549Z,98174.19
2018-08-19T23:14:15.929Z,98170.95
2018-08-19T23:16:44.518Z,98174.54
2018-08-19T23:19:13.537Z,98176.52
2018-08-19T23:21:42.113Z,98176.00
2018-08-19T23:24:10.677Z,98171.47
2018-08-19T23:26:39.235Z,98171.87
2018-08-19T23:29:07.785Z,98168.86
2018-08-19T23:31:36.355Z,98167.64
2018-08-19T23:34:04.969Z,98172.37
2018-08-19T23:36:33.514Z,98177.80
2018-08-19T23:39:02.056Z,98184.53
2018-08-19T23:41:30.553Z,98182.34
2018-08-19T23:43:59.112Z,98182.70
2018-08-19T23:46:27.661Z,98182.89
2018-08-19T23:48:56.246Z,98180.53
2018-08-19T23:51:29.294Z,98184.58
2018-08-19T23:53:58.257Z,98176.53
2018-08-19T23:56:26.843Z,98178.55
2018-08-19T23:58:55.562Z,98178.31
